createdAt,value
2022-11-16T00:00:35.563Z,99899.63
2022-11-16T00:03:03.744Z,99899.78
2022-11-16T00:05:30.299Z,99897.19
2022-11-16T00:07:57.733Z,99894.72
2022-11-16T00:10:24.352Z,99885.06
2022-11-16T00:12:50.913Z,99888.72
2022-11-16T00:15:17.455Z,99885.28
2022-11-16T00:17:43.996Z,99884.50
2022-11-16T00:20:10.947Z,99882.84
2022-11-16T00:22:37.558Z,99878.44
2022-11-16T00:25:04.531Z,99875.94
2022-11-16T00:27:31.214Z,99871.63
2022-11-16T00:29:57.768Z,99878.81
2022-11-16T00:32:24.462Z,99870.03
2022-11-16T00:34:51.018Z,99868.38
2022-11-16T00:37:17.576Z,99865.81
2022-11-16T00:39:44.163Z,99864.09
2022-11-16T00:42:10.722Z,99856.22
2022-11-16T00:44:37.359Z,99856.37
2022-11-16T00:47:04.038Z,99837.06
2022-11-16T00:49:30.669Z,99843.31
2022-11-16T00:51:57.238Z,99829.22
2022-11-16T00:54:23.897Z,99835.50
2022-11-16T00:56:50.454Z,99834.75
2022-11-16T00:59:17.029Z,99841.81
2022-11-16T01:01:43.762Z,99836.53
2022-11-16T01:04:10.516Z,99829.59
2022-11-16T01:06:37.067Z,99827.81
2022-11-16T01:09:03.793Z,99822.59
2022-11-16T01:11:48.691Z,99826.19
2022-11-16T01:14:15.291Z,99829.81
2022-11-16T01:16:41.918Z,99820.13
2022-11-16T01:19:08.500Z,99813.19
2022-11-16T01:21:35.093Z,99808.75
2022-11-16T01:24:01.629Z,99799.97
2022-11-16T01:26:28.182Z,99799.97
2022-11-16T01:28:54.812Z,99791.25
2022-11-16T01:31:21.446Z,99794.13
2022-11-16T01:33:47.983Z,99792.38
2022-11-16T01:36:16.914Z,99791.53
2022-11-16T01:38:44.184Z,99787.19
2022-11-16T01:41:14.238Z,99774.91
2022-11-16T01:43:56.307Z,99778.50
2022-11-16T01:46:23.405Z,99772.34
2022-11-16T01:48:51.795Z,99769.72
2022-11-16T01:51:18.384Z,99763.59
2022-11-16T01:53:44.978Z,99760.09
2022-11-16T01:56:11.539Z,99761.03
2022-11-16T01:58:38.112Z,99762.81
2022-11-16T02:01:04.741Z,99758.44
2022-11-16T02:03:31.391Z,99752.31
2022-11-16T02:06:16.235Z,99749.84
2022-11-16T02:09:26.477Z,99747.19
2022-11-16T02:12:06.859Z,99741.09
2022-11-16T02:15:16.014Z,99735.91
2022-11-16T02:18:07.480Z,99737.69
2022-11-16T02:20:52.410Z,99741.31
2022-11-16T02:23:29.853Z,99737.84
2022-11-16T02:26:27.300Z,99736.03
2022-11-16T02:29:15.782Z,99730.84
2022-11-16T02:31:46.451Z,99721.22
2022-11-16T02:34:14.019Z,99714.28
2022-11-16T02:36:40.670Z,99709.94
2022-11-16T02:39:09.160Z,99712.56
2022-11-16T02:41:36.689Z,99718.78
2022-11-16T02:44:06.244Z,99706.53
2022-11-16T02:46:36.828Z,99707.41
2022-11-16T02:49:03.973Z,99705.72
2022-11-16T02:51:30.527Z,99702.22
2022-11-16T02:54:18.043Z,99701.44
2022-11-16T02:57:02.968Z,99697.03
2022-11-16T02:59:36.260Z,99690.03
2022-11-16T03:02:12.729Z,99684.81
2022-11-16T03:04:45.555Z,99693.66
2022-11-16T03:07:13.687Z,99675.19
2022-11-16T03:09:40.571Z,99686.69
2022-11-16T03:12:08.504Z,99679.69
2022-11-16T03:14:55.990Z,99675.31
2022-11-16T03:17:27.949Z,99674.47
2022-11-16T03:20:08.347Z,99678.03
2022-11-16T03:22:51.207Z,99670.25
2022-11-16T03:25:19.144Z,99672.91
2022-11-16T03:27:53.581Z,99674.69
2022-11-16T03:30:23.813Z,99664.19
2022-11-16T03:33:20.290Z,99658.06
2022-11-16T03:35:52.769Z,99662.50
2022-11-16T03:38:19.679Z,99655.56
2022-11-16T03:40:46.333Z,99660.00
2022-11-16T03:43:12.902Z,99654.72
2022-11-16T03:45:39.443Z,99648.50
2022-11-16T03:48:07.013Z,99647.19
2022-11-16T03:50:33.636Z,99648.19
2022-11-16T03:53:00.281Z,99638.69
2022-11-16T03:55:26.831Z,99635.66
2022-11-16T03:57:53.402Z,99631.19
2022-11-16T04:00:22.326Z,99631.06
2022-11-16T04:02:48.885Z,99628.94
2022-11-16T04:05:33.994Z,99626.34
2022-11-16T04:08:19.193Z,99617.19
2022-11-16T04:11:04.718Z,99616.31
2022-11-16T04:13:51.214Z,99613.19
2022-11-16T04:16:36.339Z,99606.41
2022-11-16T04:19:21.662Z,99607.00
2022-11-16T04:22:09.509Z,99595.69
2022-11-16T04:24:38.073Z,99595.38
2022-11-16T04:27:24.830Z,99591.31
2022-11-16T04:29:51.371Z,99586.50
2022-11-16T04:32:36.468Z,99588.75
2022-11-16T04:35:21.800Z,99582.97
2022-11-16T04:37:52.791Z,99594.88
2022-11-16T04:40:20.055Z,99575.81
2022-11-16T04:42:53.544Z,99580.59
2022-11-16T04:45:38.986Z,99581.00
2022-11-16T04:48:07.941Z,99581.56
2022-11-16T04:50:34.686Z,99576.44
2022-11-16T04:53:01.412Z,99577.84
2022-11-16T04:55:27.969Z,99570.38
2022-11-16T04:57:54.549Z,99576.28
2022-11-16T05:00:21.480Z,99565.25
2022-11-16T05:02:48.052Z,99568.50
2022-11-16T05:05:14.898Z,99570.75
2022-11-16T05:07:41.705Z,99568.47
2022-11-16T05:10:08.577Z,99576.97
2022-11-16T05:12:35.165Z,99574.84
2022-11-16T05:15:01.744Z,99576.66
2022-11-16T05:17:28.470Z,99571.69
2022-11-16T05:20:13.571Z,99570.25
2022-11-16T05:22:40.137Z,99566.72
2022-11-16T05:25:07.782Z,99558.91
2022-11-16T05:27:34.395Z,99563.28
2022-11-16T05:30:00.998Z,99561.31
2022-11-16T05:32:27.733Z,99556.47
2022-11-16T05:34:54.337Z,99547.25
2022-11-16T05:37:26.673Z,99555.88
2022-11-16T05:39:54.895Z,99548.66
2022-11-16T05:42:21.510Z,99543.97
2022-11-16T05:44:48.117Z,99537.75
2022-11-16T05:47:14.677Z,99543.22
2022-11-16T05:49:41.229Z,99539.53
2022-11-16T05:52:07.786Z,99532.41
2022-11-16T05:54:34.535Z,99535.69
2022-11-16T05:57:01.088Z,99529.91
2022-11-16T05:59:29.327Z,99525.53
2022-11-16T06:01:55.907Z,99522.28
2022-11-16T06:04:24.507Z,99531.91
2022-11-16T06:06:51.480Z,99524.69
2022-11-16T06:09:18.097Z,99523.00
2022-11-16T06:11:44.674Z,99518.69
2022-11-16T06:14:11.258Z,99515.63
2022-11-16T06:16:37.916Z,99521.47
2022-11-16T06:19:04.517Z,99520.47
2022-11-16T06:21:31.151Z,99527.09
2022-11-16T06:23:57.923Z,99533.41
2022-11-16T06:26:24.543Z,99527.75
2022-11-16T06:28:53.427Z,99531.13
2022-11-16T06:31:19.987Z,99526.16
2022-11-16T06:33:46.552Z,99531.06
2022-11-16T06:36:13.122Z,99530.06
2022-11-16T06:38:39.658Z,99532.53
2022-11-16T06:41:06.231Z,99526.25
2022-11-16T06:43:32.774Z,99517.97
2022-11-16T06:45:59.445Z,99520.75
2022-11-16T06:48:26.033Z,99514.91
2022-11-16T06:50:55.539Z,99510.53
2022-11-16T06:53:27.551Z,99512.91
2022-11-16T06:55:55.763Z,99513.13
2022-11-16T06:58:22.422Z,99509.59
2022-11-16T07:00:49.195Z,99505.97
2022-11-16T07:03:15.796Z,99507.69
2022-11-16T07:05:42.370Z,99496.28
2022-11-16T07:08:09.469Z,99501.06
2022-11-16T07:10:36.973Z,99493.97
2022-11-16T07:13:03.822Z,99489.06
2022-11-16T07:15:30.928Z,99488.06
2022-11-16T07:17:57.578Z,99499.25
2022-11-16T07:20:24.221Z,99485.56
2022-11-16T07:22:50.894Z,99491.00
2022-11-16T07:25:17.446Z,99492.78
2022-11-16T07:27:44.069Z,99480.44
2022-11-16T07:30:11.200Z,99484.22
2022-11-16T07:32:39.888Z,99479.38
2022-11-16T07:35:06.909Z,99484.19
2022-11-16T07:37:33.442Z,99478.66
2022-11-16T07:40:00.135Z,99478.38
2022-11-16T07:42:26.834Z,99467.28
2022-11-16T07:44:53.380Z,99470.69
2022-11-16T07:47:19.976Z,99476.38
2022-11-16T07:49:48.786Z,99476.91
2022-11-16T07:52:15.387Z,99470.78
2022-11-16T07:54:41.927Z,99464.09
2022-11-16T07:57:08.610Z,99466.94
2022-11-16T07:59:35.225Z,99471.19
2022-11-16T08:02:01.847Z,99460.41
2022-11-16T08:04:28.448Z,99452.44
2022-11-16T08:06:55.115Z,99447.94
2022-11-16T08:09:21.769Z,99451.59
2022-11-16T08:11:48.398Z,99444.00
2022-11-16T08:14:15.710Z,99442.78
2022-11-16T08:16:42.298Z,99445.66
2022-11-16T08:19:08.850Z,99449.00
2022-11-16T08:21:35.467Z,99447.16
2022-11-16T08:24:02.048Z,99445.00
2022-11-16T08:26:28.654Z,99446.00
2022-11-16T08:28:56.540Z,99450.09
2022-11-16T08:31:25.347Z,99439.31
2022-11-16T08:33:52.167Z,99438.31
2022-11-16T08:36:18.945Z,99441.84
2022-11-16T08:38:46.309Z,99435.75
2022-11-16T08:41:13.037Z,99444.47
2022-11-16T08:43:40.445Z,99437.69
2022-11-16T08:46:10.252Z,99437.56
2022-11-16T08:48:37.509Z,99436.69
2022-11-16T08:51:21.111Z,99440.47
2022-11-16T08:53:49.199Z,99432.09
2022-11-16T08:56:17.224Z,99435.69
2022-11-16T08:58:44.373Z,99431.31
2022-11-16T09:01:13.859Z,99432.06
2022-11-16T09:03:41.033Z,99431.44
2022-11-16T09:06:07.959Z,99434.12
2022-11-16T09:08:35.852Z,99438.91
2022-11-16T09:11:06.432Z,99436.84
2022-11-16T09:13:33.206Z,99432.22
2022-11-16T09:16:00.378Z,99420.78
2022-11-16T09:18:27.393Z,99416.34
2022-11-16T09:20:54.094Z,99410.62
2022-11-16T09:23:25.111Z,99422.66
2022-11-16T09:25:52.190Z,99420.03
2022-11-16T09:28:18.889Z,99424.91
2022-11-16T09:30:45.852Z,99415.31
2022-11-16T09:33:13.344Z,99424.34
2022-11-16T09:35:40.037Z,99422.53
2022-11-16T09:38:06.827Z,99413.28
2022-11-16T09:40:35.322Z,99411.12
2022-11-16T09:43:01.974Z,99407.25
2022-11-16T09:45:33.289Z,99402.72
2022-11-16T09:48:02.884Z,99394.28
2022-11-16T09:50:29.323Z,99401.88
2022-11-16T09:52:57.293Z,99392.06
2022-11-16T09:55:27.289Z,99393.19
2022-11-16T09:57:55.681Z,99395.59
2022-11-16T10:00:25.737Z,99390.75
2022-11-16T10:03:04.659Z,99390.91
2022-11-16T10:05:36.909Z,99382.13
2022-11-16T10:08:10.165Z,99375.69
2022-11-16T10:10:43.103Z,99367.81
2022-11-16T10:13:33.219Z,99354.69
2022-11-16T10:16:18.310Z,99358.34
2022-11-16T10:19:23.338Z,99361.37
2022-11-16T10:22:12.264Z,99362.06
2022-11-16T10:24:58.368Z,99345.81
2022-11-16T10:27:51.924Z,99340.72
2022-11-16T10:30:21.333Z,99344.72
2022-11-16T10:32:49.604Z,99348.69
2022-11-16T10:35:29.851Z,99340.75
2022-11-16T10:37:59.035Z,99342.78
2022-11-16T10:40:29.105Z,99342.41
2022-11-16T10:43:03.125Z,99330.19
2022-11-16T10:45:40.689Z,99334.88
2022-11-16T10:48:41.262Z,99329.59
2022-11-16T10:51:08.338Z,99330.66
2022-11-16T10:53:39.619Z,99321.72
2022-11-16T10:56:22.234Z,99320.81
2022-11-16T10:59:08.195Z,99310.91
2022-11-16T11:01:41.773Z,99307.28
2022-11-16T11:04:30.171Z,99301.53
2022-11-16T11:07:01.008Z,99300.53
2022-11-16T11:09:32.173Z,99298.03
2022-11-16T11:12:21.059Z,99288.62
2022-11-16T11:15:02.975Z,99281.59
2022-11-16T11:17:30.534Z,99279.81
2022-11-16T11:20:27.818Z,99268.75
2022-11-16T11:22:54.536Z,99277.50
2022-11-16T11:25:38.770Z,99272.81
2022-11-16T11:28:18.862Z,99269.13
2022-11-16T11:30:58.779Z,99262.94
2022-11-16T11:33:27.305Z,99263.47
2022-11-16T11:36:01.829Z,99265.84
2022-11-16T11:38:28.429Z,99261.81
2022-11-16T11:40:57.875Z,99260.81
2022-11-16T11:43:25.180Z,99253.22
2022-11-16T11:46:04.038Z,99250.34
2022-11-16T11:48:41.791Z,99247.97
2022-11-16T11:51:32.780Z,99243.06
2022-11-16T11:54:00.380Z,99237.41
2022-11-16T11:56:27.966Z,99242.47
2022-11-16T11:58:54.648Z,99239.03
2022-11-16T12:01:29.908Z,99246.00
2022-11-16T12:03:59.361Z,99240.78
2022-11-16T12:06:43.634Z,99234.03
2022-11-16T12:09:29.503Z,99232.84
2022-11-16T12:11:59.560Z,99234.69
2022-11-16T12:14:59.181Z,99235.66
2022-11-16T12:17:39.786Z,99235.19
2022-11-16T12:20:16.620Z,99239.41
2022-11-16T12:22:52.183Z,99239.03
2022-11-16T12:25:25.625Z,99232.97
2022-11-16T12:28:14.059Z,99230.63
2022-11-16T12:31:05.982Z,99230.63
2022-11-16T12:33:50.628Z,99228.12
2022-11-16T12:36:37.853Z,99230.13
2022-11-16T12:39:10.520Z,99226.63
2022-11-16T12:41:59.971Z,99224.13
2022-11-16T12:44:50.960Z,99218.38
2022-11-16T12:47:28.914Z,99215.28
2022-11-16T12:50:12.879Z,99208.97
2022-11-16T12:52:52.486Z,99204.75
2022-11-16T12:55:26.421Z,99209.47
2022-11-16T12:58:12.338Z,99211.88
2022-11-16T13:00:53.235Z,99202.34
2022-11-16T13:03:38.339Z,99213.81
2022-11-16T13:06:06.923Z,99203.69
2022-11-16T13:08:52.389Z,99204.50
2022-11-16T13:11:22.834Z,99207.03
2022-11-16T13:13:53.604Z,99207.87
2022-11-16T13:16:20.746Z,99202.31
2022-11-16T13:18:47.304Z,99204.47
2022-11-16T13:21:19.109Z,99204.16
2022-11-16T13:24:04.412Z,99201.81
2022-11-16T13:26:36.288Z,99205.12
2022-11-16T13:29:30.286Z,99197.22
2022-11-16T13:32:01.035Z,99199.75
2022-11-16T13:34:31.478Z,99197.72
2022-11-16T13:36:58.070Z,99199.22
2022-11-16T13:40:00.514Z,99201.69
2022-11-16T13:42:27.090Z,99196.25
2022-11-16T13:44:53.729Z,99201.56
2022-11-16T13:47:24.856Z,99199.72
2022-11-16T13:49:56.693Z,99204.94
2022-11-16T13:52:26.646Z,99197.69
2022-11-16T13:55:22.203Z,99194.94
2022-11-16T13:57:51.010Z,99189.78
2022-11-16T14:00:34.046Z,99185.13
2022-11-16T14:03:15.949Z,99186.25
2022-11-16T14:05:43.843Z,99178.22
2022-11-16T14:08:19.297Z,99182.19
2022-11-16T14:10:48.710Z,99179.78
2022-11-16T14:13:37.381Z,99177.75
2022-11-16T14:16:16.590Z,99181.75
2022-11-16T14:18:43.688Z,99170.31
2022-11-16T14:21:19.280Z,99180.31
2022-11-16T14:23:54.544Z,99176.22
2022-11-16T14:26:32.405Z,99170.31
2022-11-16T14:29:15.473Z,99170.31
2022-11-16T14:31:49.847Z,99165.59
2022-11-16T14:34:18.676Z,99160.56
2022-11-16T14:36:45.631Z,99164.63
2022-11-16T14:39:29.024Z,99163.63
2022-11-16T14:42:15.213Z,99159.47
2022-11-16T14:44:41.897Z,99159.81
2022-11-16T14:47:18.986Z,99162.16
2022-11-16T14:49:45.650Z,99164.38
2022-11-16T14:52:12.225Z,99156.91
2022-11-16T14:54:42.495Z,99164.44
2022-11-16T14:57:19.859Z,99156.44
2022-11-16T14:59:46.424Z,99156.72
2022-11-16T15:02:33.147Z,99151.66
2022-11-16T15:05:00.129Z,99154.03
2022-11-16T15:07:26.762Z,99143.62
2022-11-16T15:09:54.902Z,99138.41
2022-11-16T15:12:41.825Z,99136.53
2022-11-16T15:15:11.400Z,99143.66
2022-11-16T15:17:39.520Z,99140.50
2022-11-16T15:20:16.530Z,99139.97
2022-11-16T15:22:44.690Z,99142.50
2022-11-16T15:25:33.597Z,99138.53
2022-11-16T15:28:01.845Z,99136.03
2022-11-16T15:30:30.486Z,99131.13
2022-11-16T15:32:57.084Z,99130.13
2022-11-16T15:35:31.299Z,99126.78
2022-11-16T15:38:17.696Z,99129.12
2022-11-16T15:40:49.479Z,99130.81
2022-11-16T15:43:16.055Z,99124.09
2022-11-16T15:45:42.905Z,99125.59
2022-11-16T15:48:12.214Z,99132.81
2022-11-16T15:50:38.786Z,99117.06
2022-11-16T15:53:05.382Z,99120.91
2022-11-16T15:55:34.230Z,99124.91
2022-11-16T15:58:01.382Z,99124.41
2022-11-16T16:00:28.360Z,99126.78
2022-11-16T16:03:02.551Z,99131.97
2022-11-16T16:05:39.742Z,99118.38
2022-11-16T16:08:06.846Z,99110.50
2022-11-16T16:10:33.446Z,99113.53
2022-11-16T16:13:00.692Z,99110.81
2022-11-16T16:15:33.891Z,99108.47
2022-11-16T16:18:00.765Z,99116.19
2022-11-16T16:20:31.205Z,99113.12
2022-11-16T16:23:15.185Z,99108.09
2022-11-16T16:25:46.028Z,99106.59
2022-11-16T16:28:16.655Z,99108.13
2022-11-16T16:30:43.226Z,99109.78
2022-11-16T16:33:15.501Z,99113.31
2022-11-16T16:35:42.085Z,99110.13
2022-11-16T16:38:09.441Z,99114.16
2022-11-16T16:40:36.079Z,99120.72
2022-11-16T16:43:02.639Z,99102.37
2022-11-16T16:45:41.388Z,99112.66
2022-11-16T16:48:09.490Z,99108.78
2022-11-16T16:50:36.535Z,99107.94
2022-11-16T16:53:03.157Z,99103.91
2022-11-16T16:55:32.871Z,99104.59
2022-11-16T16:58:02.890Z,99104.41
2022-11-16T17:00:29.481Z,99100.88
2022-11-16T17:02:56.205Z,99105.41
2022-11-16T17:05:22.782Z,99100.97
2022-11-16T17:07:49.479Z,99100.75
2022-11-16T17:10:17.986Z,99105.34
2022-11-16T17:12:44.570Z,99110.38
2022-11-16T17:15:15.056Z,99097.78
2022-11-16T17:17:44.626Z,99095.88
2022-11-16T17:20:11.863Z,99098.59
2022-11-16T17:22:38.523Z,99096.00
2022-11-16T17:25:05.546Z,99101.87
2022-11-16T17:27:32.314Z,99091.00
2022-11-16T17:29:58.957Z,99088.13
2022-11-16T17:32:25.607Z,99089.28
2022-11-16T17:34:52.182Z,99089.09
2022-11-16T17:37:18.859Z,99092.72
2022-11-16T17:39:45.406Z,99090.94
2022-11-16T17:42:12.015Z,99088.66
2022-11-16T17:44:38.576Z,99084.56
2022-11-16T17:47:05.228Z,99085.34
2022-11-16T17:49:31.783Z,99080.72
2022-11-16T17:51:58.337Z,99077.91
2022-11-16T17:54:24.889Z,99083.62
2022-11-16T17:56:51.525Z,99080.75
2022-11-16T17:59:18.094Z,99079.94
2022-11-16T18:01:45.952Z,99085.00
2022-11-16T18:04:12.562Z,99074.72
2022-11-16T18:06:39.987Z,99077.09
2022-11-16T18:09:06.584Z,99077.59
2022-11-16T18:11:33.338Z,99075.44
2022-11-16T18:14:00.777Z,99065.34
2022-11-16T18:16:31.533Z,99071.37
2022-11-16T18:19:02.589Z,99071.72
2022-11-16T18:21:29.322Z,99071.69
2022-11-16T18:23:56.035Z,99066.31
2022-11-16T18:26:23.729Z,99071.81
2022-11-16T18:28:51.520Z,99069.31
2022-11-16T18:31:19.994Z,99064.25
2022-11-16T18:33:47.463Z,99060.38
2022-11-16T18:36:14.069Z,99067.78
2022-11-16T18:38:40.689Z,99065.56
2022-11-16T18:41:13.781Z,99061.22
2022-11-16T18:43:41.090Z,99066.09
2022-11-16T18:46:07.863Z,99062.41
2022-11-16T18:48:35.786Z,99066.59
2022-11-16T18:51:03.105Z,99065.53
2022-11-16T18:53:30.063Z,99061.31
2022-11-16T18:55:58.292Z,99061.56
2022-11-16T18:58:49.389Z,99056.19
2022-11-16T19:01:14.000Z,99064.00
2022-11-16T19:03:40.660Z,99062.00
2022-11-16T19:06:07.790Z,99064.53
2022-11-16T19:08:34.843Z,99058.78
2022-11-16T19:11:11.618Z,99062.31
2022-11-16T19:13:38.775Z,99061.69
2022-11-16T19:16:06.066Z,99062.84
2022-11-16T19:18:32.707Z,99056.94
2022-11-16T19:21:10.011Z,99052.94
2022-11-16T19:23:41.019Z,99050.94
2022-11-16T19:26:07.723Z,99062.16
2022-11-16T19:28:37.968Z,99050.56
2022-11-16T19:31:08.896Z,99059.00
2022-11-16T19:33:35.992Z,99050.56
2022-11-16T19:36:09.642Z,99053.41
2022-11-16T19:38:36.455Z,99050.41
2022-11-16T19:41:03.138Z,99046.25
2022-11-16T19:43:29.711Z,99045.69
2022-11-16T19:45:56.330Z,99041.47
2022-11-16T19:48:22.895Z,99043.84
2022-11-16T19:50:49.468Z,99035.13
2022-11-16T19:53:16.042Z,99048.03
2022-11-16T19:55:44.224Z,99040.50
2022-11-16T19:58:12.836Z,99036.78
2022-11-16T20:00:39.402Z,99039.28
2022-11-16T20:03:06.061Z,99040.59
2022-11-16T20:05:33.220Z,99038.31
2022-11-16T20:07:59.778Z,99044.06
2022-11-16T20:10:29.010Z,99040.91
2022-11-16T20:12:56.885Z,99047.81
2022-11-16T20:15:25.392Z,99051.94
2022-11-16T20:17:52.376Z,99049.88
2022-11-16T20:20:19.155Z,99044.91
2022-11-16T20:22:47.460Z,99042.09
2022-11-16T20:25:16.888Z,99044.50
2022-11-16T20:27:43.482Z,99042.47
2022-11-16T20:30:10.567Z,99047.59
2022-11-16T20:32:37.173Z,99051.44
2022-11-16T20:35:03.882Z,99056.09
2022-11-16T20:37:30.441Z,99052.97
2022-11-16T20:39:57.234Z,99042.25
2022-11-16T20:42:24.152Z,99042.75
2022-11-16T20:44:50.751Z,99030.25
2022-11-16T20:47:17.333Z,99025.97
2022-11-16T20:49:43.895Z,99025.59
2022-11-16T20:52:10.454Z,99031.91
2022-11-16T20:54:37.028Z,99031.50
2022-11-16T20:57:04.650Z,99035.22
2022-11-16T20:59:31.296Z,99025.81
2022-11-16T21:01:57.864Z,99031.94
2022-11-16T21:04:24.474Z,99037.19
2022-11-16T21:06:51.088Z,99045.31
2022-11-16T21:09:22.641Z,99042.22
2022-11-16T21:12:08.035Z,99035.47
2022-11-16T21:14:34.669Z,99038.97
2022-11-16T21:17:01.279Z,99033.50
2022-11-16T21:19:27.847Z,99033.50
2022-11-16T21:21:54.403Z,99037.88
2022-11-16T21:24:21.918Z,99040.91
2022-11-16T21:26:48.494Z,99030.97
2022-11-16T21:29:15.146Z,99018.13
2022-11-16T21:31:41.713Z,99014.12
2022-11-16T21:34:08.304Z,99014.62
2022-11-16T21:36:36.193Z,99015.28
2022-11-16T21:39:03.099Z,99014.78
2022-11-16T21:41:29.741Z,99019.00
2022-11-16T21:43:56.433Z,99012.69
2022-11-16T21:46:27.202Z,99010.37
2022-11-16T21:48:55.407Z,99004.78
2022-11-16T21:51:24.714Z,98999.31
2022-11-16T21:53:51.307Z,98990.13
2022-11-16T21:56:18.984Z,98986.09
2022-11-16T21:58:45.742Z,98987.81
2022-11-16T22:01:12.672Z,98991.53
2022-11-16T22:03:39.318Z,98975.84
2022-11-16T22:06:25.734Z,98976.28
2022-11-16T22:08:52.657Z,98980.16
2022-11-16T22:11:22.231Z,98985.06
2022-11-16T22:13:49.425Z,98988.16
2022-11-16T22:16:16.383Z,98986.06
2022-11-16T22:18:43.216Z,98980.22
2022-11-16T22:21:09.889Z,98975.50
2022-11-16T22:23:36.920Z,98982.31
2022-11-16T22:26:08.233Z,98984.34
2022-11-16T22:28:35.352Z,98997.94
2022-11-16T22:31:06.529Z,99009.94
2022-11-16T22:33:33.567Z,99014.91
2022-11-16T22:36:00.559Z,99005.91
2022-11-16T22:38:27.206Z,99005.56
2022-11-16T22:40:55.303Z,99008.88
2022-11-16T22:43:23.297Z,98997.63
2022-11-16T22:45:49.917Z,99000.59
2022-11-16T22:48:16.526Z,99005.47
2022-11-16T22:50:43.361Z,99010.25
2022-11-16T22:53:10.267Z,99010.44
2022-11-16T22:55:37.711Z,99007.12
2022-11-16T22:58:04.740Z,99009.25
2022-11-16T23:00:31.497Z,98996.31
2022-11-16T23:02:58.164Z,98993.91
2022-11-16T23:05:24.796Z,99002.16
2022-11-16T23:07:51.357Z,99003.28
2022-11-16T23:10:18.110Z,98998.19
2022-11-16T23:13:03.226Z,98998.41
2022-11-16T23:15:48.635Z,99005.69
2022-11-16T23:18:15.339Z,98996.13
2022-11-16T23:21:00.375Z,98990.22
2022-11-16T23:23:45.854Z,98979.81
2022-11-16T23:26:33.513Z,98970.50
2022-11-16T23:29:00.287Z,98978.63
2022-11-16T23:31:26.891Z,98988.56
2022-11-16T23:33:53.443Z,98993.13
2022-11-16T23:36:20.038Z,98988.78
2022-11-16T23:38:46.600Z,98987.19
2022-11-16T23:41:31.814Z,98985.50
2022-11-16T23:43:58.444Z,98987.41
2022-11-16T23:46:29.100Z,99000.84
2022-11-16T23:48:55.824Z,99001.13
2022-11-16T23:51:23.467Z,98995.00
2022-11-16T23:53:51.732Z,98993.38
2022-11-16T23:56:19.311Z,98984.72
2022-11-16T23:58:46.086Z,98988.37
